Giove Jet — IJNX — position and weather

sailwx.info

Track history (hours):
 
Tides and Currents Weather Stations Pressure Air Temp Water Temp Dewpoint Dewpoint Depression Visibility Wind Speed Wind Dir Waves Ship Positions

Giove Jet

Last reported at 2016-May-29 17:09 UTC. Time now 2016-May-31 21:53 UTC.
Position N 40°50' E 014°16'.

Length 33 m; draft 1.2 m.

MMSI: 247049500.

Date/timePositionNaut miles runAvg speedWind from/ knotsBaromVisibWave heightAir tempDewpointWater temp
2016-May-29 17:09N 40°50' E 014°16'1017.5
2016-May-29 16:34N 40°46' E 014°03'9 9.1
2016-May-29 15:33N 40°44' E 013°52'4 3.6
2016-May-29 14:34N 40°45' E 013°56'2 1.7
2016-May-29 13:33N 40°46' E 013°58'1411.3
2016-May-29 12:17N 40°50' E 014°16'1419.8
2016-May-29 11:34N 40°45' E 013°58'1211.5
2016-May-29 10:34N 40°48' E 014°13'4 3.5
2016-May-29 09:34N 40°47' E 014°09'6 6.2
2016-May-29 08:34N 40°46' E 014°00'12 0.7
2016-May-28 15:06N 40°50' E 014°16'1018.7
2016-May-28 14:34N 40°46' E 014°04'6 5.8
2016-May-28 13:34N 40°45' E 013°56'0 0.0
2016-May-28 12:33N 40°45' E 013°56'0 0.0
2016-May-28 11:33N 40°45' E 013°56'1111.0
2016-May-28 10:33N 40°47' E 014°11'5 4.2
2016-May-28 09:22N 40°50' E 014°16'1 0.3
2016-May-28 07:20N 40°51' E 014°16'11 0.6
2016-May-27 14:33N 40°41' E 014°21'1 0.9
2016-May-27 13:33N 40°41' E 014°21'9 8.5
2016-May-27 12:33N 40°49' E 014°17'9 8.9
2016-May-27 11:34N 40°41' E 014°21'10 9.4
2016-May-27 10:33N 40°50' E 014°17'1111.2
2016-May-27 09:34N 40°40' E 014°22'1111.0
2016-May-27 08:33N 40°50' E 014°17'1111.4
2016-May-27 07:33N 40°39' E 014°22'10 5.2
2016-May-27 05:33N 40°48' E 014°13'1716.6
2016-May-27 04:33N 40°46' E 013°52'4 0.3
2016-May-26 17:21N 40°45' E 013°56'0 0.0
2016-May-26 16:33N 40°45' E 013°56'1817.7
2016-May-26 15:33N 40°33' E 014°14'1 0.5
2016-May-26 14:34N 40°34' E 014°14'0 0.0
2016-May-26 13:33N 40°34' E 014°14'0 0.0
2016-May-26 12:33N 40°34' E 014°14'0 0.0
2016-May-26 11:33N 40°34' E 014°14'0 0.0
2016-May-26 10:34N 40°34' E 014°14'1 0.6
2016-May-26 09:33N 40°34' E 014°15'0 0.4
2016-May-26 08:33N 40°34' E 014°15'1817.7
2016-May-26 07:33N 40°45' E 013°56'2 2.1
2016-May-26 06:33N 40°46' E 013°58'12 0.8
2016-May-25 15:26N 40°50' E 014°13'1213.2
2016-May-25 14:33N 40°40' E 014°22'4 3.5
2016-May-25 13:33N 40°43' E 014°20'4 4.5
2016-May-25 12:33N 40°47' E 014°18'9 9.4
2016-May-25 11:34N 40°43' E 014°07'5 5.4
2016-May-25 10:34N 40°47' E 014°11'5 2.6
2016-May-25 08:33N 40°49' E 014°17'10 9.9
2016-May-25 07:34N 40°40' E 014°21'10 9.7
2016-May-25 06:33N 40°48' E 014°15'2 0.0
2016-May-23 15:28N 40°50' E 014°13'1415.1
2016-May-23 14:34N 40°38' E 014°23'0 0.2
2016-May-23 13:33N 40°38' E 014°23'7 7.3
2016-May-23 12:33N 40°40' E 014°14'1413.7
2016-May-23 11:33N 40°45' E 013°56'1211.6
2016-May-23 10:33N 40°47' E 014°11'5 2.4
2016-May-23 08:33N 40°50' E 014°16'1211.8
2016-May-23 07:34N 40°39' E 014°22'1110.8
2016-May-23 06:34N 40°49' E 014°16'1 0.1
2016-May-22 15:33N 40°49' E 014°15'9 9.0
2016-May-22 14:33N 40°46' E 014°03'6 5.5
2016-May-22 13:33N 40°45' E 013°56'0 0.0
2016-May-22 12:33N 40°45' E 013°56'0 0.0
2016-May-22 11:33N 40°45' E 013°56'1111.0
2016-May-22 10:33N 40°47' E 014°11'5 4.0
2016-May-22 09:17N 40°50' E 014°16'2 2.6
2016-May-22 08:33N 40°50' E 014°13'0 0.0
2016-May-20 15:27N 40°50' E 014°13'1213.4
2016-May-20 14:34N 40°40' E 014°23'4 4.2
2016-May-20 13:34N 40°43' E 014°19'6 6.0
2016-May-20 12:33N 40°49' E 014°17'1212.0
2016-May-20 11:33N 40°38' E 014°23'8 7.6
2016-May-20 10:34N 40°33' E 014°14'10 9.6
2016-May-20 09:33N 40°42' E 014°21'8 8.0
2016-May-20 08:33N 40°49' E 014°17'9 9.1
2016-May-20 07:33N 40°41' E 014°21'  
Track history (hours):
 
Tides and Currents Weather Stations Pressure Air Temp Water Temp Dewpoint Dewpoint Depression Visibility Wind Speed Wind Dir Waves Ship Positions

Giove Jet

Last reported at 2016-May-29 17:09 UTC. Time now 2016-May-31 21:53 UTC.
Position N 40°50' E 014°16'.

Length 33 m; draft 1.2 m.

MMSI: 247049500.

Date/timePositionNaut miles runAvg speedWind from/ knotsBaromVisibWave heightAir tempDewpointWater temp
2016-May-29 17:09N 40°50' E 014°16'1017.5
2016-May-29 16:34N 40°46' E 014°03'9 9.1
2016-May-29 15:33N 40°44' E 013°52'4 3.6
2016-May-29 14:34N 40°45' E 013°56'2 1.7
2016-May-29 13:33N 40°46' E 013°58'1411.3
2016-May-29 12:17N 40°50' E 014°16'1419.8
2016-May-29 11:34N 40°45' E 013°58'1211.5
2016-May-29 10:34N 40°48' E 014°13'4 3.5
2016-May-29 09:34N 40°47' E 014°09'6 6.2
2016-May-29 08:34N 40°46' E 014°00'12 0.7
2016-May-28 15:06N 40°50' E 014°16'1018.7
2016-May-28 14:34N 40°46' E 014°04'6 5.8
2016-May-28 13:34N 40°45' E 013°56'0 0.0
2016-May-28 12:33N 40°45' E 013°56'0 0.0
2016-May-28 11:33N 40°45' E 013°56'1111.0
2016-May-28 10:33N 40°47' E 014°11'5 4.2
2016-May-28 09:22N 40°50' E 014°16'1 0.3
2016-May-28 07:20N 40°51' E 014°16'11 0.6
2016-May-27 14:33N 40°41' E 014°21'1 0.9
2016-May-27 13:33N 40°41' E 014°21'9 8.5
2016-May-27 12:33N 40°49' E 014°17'9 8.9
2016-May-27 11:34N 40°41' E 014°21'10 9.4
2016-May-27 10:33N 40°50' E 014°17'1111.2
2016-May-27 09:34N 40°40' E 014°22'1111.0
2016-May-27 08:33N 40°50' E 014°17'1111.4
2016-May-27 07:33N 40°39' E 014°22'10 5.2
2016-May-27 05:33N 40°48' E 014°13'1716.6
2016-May-27 04:33N 40°46' E 013°52'4 0.3
2016-May-26 17:21N 40°45' E 013°56'0 0.0
2016-May-26 16:33N 40°45' E 013°56'1817.7
2016-May-26 15:33N 40°33' E 014°14'1 0.5
2016-May-26 14:34N 40°34' E 014°14'0 0.0
2016-May-26 13:33N 40°34' E 014°14'0 0.0
2016-May-26 12:33N 40°34' E 014°14'0 0.0
2016-May-26 11:33N 40°34' E 014°14'0 0.0
2016-May-26 10:34N 40°34' E 014°14'1 0.6
2016-May-26 09:33N 40°34' E 014°15'0 0.4
2016-May-26 08:33N 40°34' E 014°15'1817.7
2016-May-26 07:33N 40°45' E 013°56'2 2.1
2016-May-26 06:33N 40°46' E 013°58'12 0.8
2016-May-25 15:26N 40°50' E 014°13'1213.2
2016-May-25 14:33N 40°40' E 014°22'4 3.5
2016-May-25 13:33N 40°43' E 014°20'4 4.5
2016-May-25 12:33N 40°47' E 014°18'9 9.4
2016-May-25 11:34N 40°43' E 014°07'5 5.4
2016-May-25 10:34N 40°47' E 014°11'5 2.6
2016-May-25 08:33N 40°49' E 014°17'10 9.9
2016-May-25 07:34N 40°40' E 014°21'10 9.7
2016-May-25 06:33N 40°48' E 014°15'2 0.0
2016-May-23 15:28N 40°50' E 014°13'1415.1
2016-May-23 14:34N 40°38' E 014°23'0 0.2
2016-May-23 13:33N 40°38' E 014°23'7 7.3
2016-May-23 12:33N 40°40' E 014°14'1413.7
2016-May-23 11:33N 40°45' E 013°56'1211.6
2016-May-23 10:33N 40°47' E 014°11'5 2.4
2016-May-23 08:33N 40°50' E 014°16'1211.8
2016-May-23 07:34N 40°39' E 014°22'1110.8
2016-May-23 06:34N 40°49' E 014°16'1 0.1
2016-May-22 15:33N 40°49' E 014°15'9 9.0
2016-May-22 14:33N 40°46' E 014°03'6 5.5
2016-May-22 13:33N 40°45' E 013°56'0 0.0
2016-May-22 12:33N 40°45' E 013°56'0 0.0
2016-May-22 11:33N 40°45' E 013°56'1111.0
2016-May-22 10:33N 40°47' E 014°11'5 4.0
2016-May-22 09:17N 40°50' E 014°16'2 2.6
2016-May-22 08:33N 40°50' E 014°13'0 0.0
2016-May-20 15:27N 40°50' E 014°13'1213.4
2016-May-20 14:34N 40°40' E 014°23'4 4.2
2016-May-20 13:34N 40°43' E 014°19'6 6.0
2016-May-20 12:33N 40°49' E 014°17'1212.0
2016-May-20 11:33N 40°38' E 014°23'8 7.6
2016-May-20 10:34N 40°33' E 014°14'10 9.6
2016-May-20 09:33N 40°42' E 014°21'8 8.0
2016-May-20 08:33N 40°49' E 014°17'9 9.1
2016-May-20 07:33N 40°41' E 014°21'  

Dump ship's entire track history